createdAt,value
2016-12-24T00:00:00.010Z,98.77
2016-12-24T00:00:59.970Z,98.77
2016-12-24T00:01:59.628Z,98.68
2016-12-24T00:02:59.586Z,98.58
2016-12-24T00:03:59.545Z,98.58
2016-12-24T00:04:59.506Z,98.58
2016-12-24T00:05:59.766Z,98.21
2016-12-24T00:06:59.732Z,98.3
2016-12-24T00:07:59.689Z,98.3
2016-12-24T00:08:59.643Z,98.39
2016-12-24T00:09:59.608Z,98.58
2016-12-24T00:10:59.262Z,98.87
2016-12-24T00:11:59.532Z,98.49
2016-12-24T00:12:59.488Z,98.49
2016-12-24T00:13:59.448Z,98.58
2016-12-24T00:14:59.403Z,98.49
2016-12-24T00:15:59.058Z,98.49
2016-12-24T00:16:59.039Z,98.77
2016-12-24T00:17:58.981Z,98.49
2016-12-24T00:18:59.243Z,98.77
2016-12-24T00:19:59.203Z,98.58
2016-12-24T00:20:59.180Z,98.58
2016-12-24T00:21:59.118Z,98.58
2016-12-24T00:22:59.079Z,98.58
2016-12-24T00:23:59.036Z,98.49
2016-12-24T00:24:58.997Z,98.49
2016-12-24T00:25:58.957Z,98.49
2016-12-24T00:26:58.612Z,98.58
2016-12-24T00:27:58.875Z,98.87
2016-12-24T00:28:58.835Z,98.77
2016-12-24T00:29:58.493Z,98.39
2016-12-24T00:30:58.754Z,98.21
2016-12-24T00:31:58.716Z,98.39
2016-12-24T00:32:58.672Z,98.21
2016-12-24T00:33:58.331Z,98.49
2016-12-24T00:34:58.595Z,98.49
2016-12-24T00:35:58.248Z,98.39
2016-12-24T00:36:58.513Z,98.39
2016-12-24T00:37:58.170Z,98.3
2016-12-24T00:38:58.430Z,98.3
2016-12-24T00:39:58.086Z,98.21
2016-12-24T00:40:58.047Z,98.39
2016-12-24T00:41:58.307Z,98.39
2016-12-24T00:42:57.963Z,98.49
2016-12-24T00:43:57.925Z,98.49
2016-12-24T00:44:58.187Z,99.06
2016-12-24T00:45:58.144Z,97.83
2016-12-24T00:46:58.103Z,98.21
2016-12-24T00:47:58.063Z,97.64
2016-12-24T00:48:58.024Z,98.39
2016-12-24T00:49:57.984Z,97.83
2016-12-24T00:50:57.945Z,98.49
2016-12-24T00:51:57.900Z,98.49
2016-12-24T00:52:57.864Z,98.02
2016-12-24T00:53:57.519Z,98.39
2016-12-24T00:54:57.483Z,98.21
2016-12-24T00:55:57.742Z,98.11
2016-12-24T00:56:57.394Z,98.39
2016-12-24T00:57:57.658Z,98.21
2016-12-24T00:58:57.618Z,98.02
2016-12-24T00:59:57.580Z,98.39
2016-12-24T01:00:57.234Z,98.02
2016-12-24T01:01:57.498Z,97.64
2016-12-24T01:02:57.454Z,97.83
2016-12-24T01:03:57.114Z,97.88
2016-12-24T01:04:57.085Z,98.39
2016-12-24T01:05:57.335Z,98.54
2016-12-24T01:06:57.293Z,98.54
2016-12-24T01:07:57.255Z,98.63
2016-12-24T01:08:57.216Z,98.44
2016-12-24T01:09:56.904Z,98.44
2016-12-24T01:10:57.131Z,98.44
2016-12-24T01:11:56.792Z,98.44
2016-12-24T01:12:57.051Z,98.16
2016-12-24T01:13:56.707Z,98.16
2016-12-24T01:14:56.970Z,98.16
2016-12-24T01:15:56.629Z,98.49
2016-12-24T01:16:56.891Z,98.63
2016-12-24T01:17:56.850Z,98.82
2016-12-24T01:18:56.809Z,98.92
2016-12-24T01:19:56.770Z,98.73
2016-12-24T01:20:56.733Z,98.92
2016-12-24T01:21:56.699Z,98.92
2016-12-24T01:22:56.651Z,98.54
2016-12-24T01:23:56.309Z,98.54
2016-12-24T01:24:56.570Z,98.63
2016-12-24T01:25:56.527Z,98.63
2016-12-24T01:26:56.184Z,99.11
2016-12-24T01:27:56.445Z,98.63
2016-12-24T01:28:56.113Z,99.2
2016-12-24T01:29:56.366Z,98.73
2016-12-24T01:30:56.331Z,98.63
2016-12-24T01:31:56.283Z,98.63
2016-12-24T01:32:56.245Z,98.54
2016-12-24T01:33:56.206Z,98.35
2016-12-24T01:34:56.164Z,98.82
2016-12-24T01:35:56.127Z,98.92
2016-12-24T01:36:56.085Z,98.63
2016-12-24T01:37:56.055Z,98.54
2016-12-24T01:38:56.003Z,98.07
2016-12-24T01:39:55.964Z,98.07
2016-12-24T01:40:55.925Z,98.44
2016-12-24T01:41:55.887Z,98.54
2016-12-24T01:42:55.541Z,97.97
2016-12-24T01:43:55.828Z,98.44
2016-12-24T01:44:55.760Z,97.97
2016-12-24T01:45:55.724Z,98.44
2016-12-24T01:46:55.680Z,97.78
2016-12-24T01:47:55.638Z,98.44
2016-12-24T01:48:55.600Z,98.54
2016-12-24T01:49:55.259Z,98.54
2016-12-24T01:50:55.514Z,97.88
2016-12-24T01:51:55.478Z,98.44
2016-12-24T01:52:55.437Z,98.25
2016-12-24T01:53:55.097Z,98.25
2016-12-24T01:54:55.357Z,98.25
2016-12-24T01:55:55.348Z,97.69
2016-12-24T01:56:54.974Z,97.88
2016-12-24T01:57:54.931Z,97.88
2016-12-24T01:58:55.195Z,97.88
2016-12-24T01:59:55.157Z,98.25
2016-12-24T02:00:55.115Z,97.69
2016-12-24T02:01:55.080Z,98.54
2016-12-24T02:02:54.731Z,97.69
2016-12-24T02:03:54.994Z,98.07
2016-12-24T02:04:54.955Z,97.97
2016-12-24T02:05:54.913Z,97.59
2016-12-24T02:06:54.873Z,97.78
2016-12-24T02:07:54.835Z,97.69
2016-12-24T02:08:54.790Z,97.5
2016-12-24T02:09:54.751Z,97.69
2016-12-24T02:10:54.709Z,97.4
2016-12-24T02:11:54.367Z,97.78
2016-12-24T02:12:54.627Z,97.78
2016-12-24T02:13:54.588Z,97.4
2016-12-24T02:14:54.248Z,97.4
2016-12-24T02:15:54.513Z,97.5
2016-12-24T02:16:54.467Z,96.73
2016-12-24T02:17:54.120Z,97.31
2016-12-24T02:18:54.390Z,97.21
2016-12-24T02:19:54.346Z,97.21
2016-12-24T02:20:54.319Z,97.31
2016-12-24T02:21:54.268Z,97.31
2016-12-24T02:22:54.227Z,96.92
2016-12-24T02:23:54.206Z,97.31
2016-12-24T02:24:54.155Z,96.64
2016-12-24T02:25:54.113Z,96.64
2016-12-24T02:26:53.763Z,96.64
2016-12-24T02:27:53.721Z,96.45
2016-12-24T02:28:53.980Z,96.64
2016-12-24T02:29:53.650Z,96.45
2016-12-24T02:30:53.905Z,96.64
2016-12-24T02:31:53.562Z,96.55
2016-12-24T02:32:53.817Z,96.64
2016-12-24T02:33:53.479Z,96.64
2016-12-24T02:34:53.738Z,96.64
2016-12-24T02:35:53.701Z,96.55
2016-12-24T02:36:53.659Z,96.64
2016-12-24T02:37:53.619Z,96.64
2016-12-24T02:38:53.577Z,96.64
2016-12-24T02:39:53.535Z,96.64
2016-12-24T02:40:53.497Z,96.55
2016-12-24T02:41:53.158Z,96.73
2016-12-24T02:42:53.113Z,96.92
2016-12-24T02:43:53.375Z,96.26
2016-12-24T02:44:53.031Z,96.26
2016-12-24T02:45:53.292Z,96.36
2016-12-24T02:46:52.958Z,96.45
2016-12-24T02:47:53.216Z,96.64
2016-12-24T02:48:53.172Z,96.08
2016-12-24T02:49:53.134Z,96.08
2016-12-24T02:50:53.089Z,96.08
2016-12-24T02:51:53.054Z,96.08
2016-12-24T02:52:53.008Z,96.17
2016-12-24T02:53:52.667Z,96.26
2016-12-24T02:54:52.930Z,96.26
2016-12-24T02:55:52.892Z,96.08
2016-12-24T02:56:52.848Z,96.08
2016-12-24T02:57:52.813Z,95.98
2016-12-24T02:58:52.772Z,95.88
2016-12-24T02:59:52.729Z,96.64
2016-12-24T03:00:52.689Z,96.17
2016-12-24T03:01:52.649Z,96.55
2016-12-24T03:02:52.611Z,96.36
2016-12-24T03:03:52.271Z,96.26
2016-12-24T03:04:52.227Z,96.17
2016-12-24T03:05:52.486Z,96.64
2016-12-24T03:06:52.147Z,96.73
2016-12-24T03:07:52.406Z,96.73
2016-12-24T03:08:52.064Z,96.55
2016-12-24T03:09:52.327Z,96.64
2016-12-24T03:10:52.281Z,96.64
2016-12-24T03:11:52.243Z,96.64
2016-12-24T03:12:52.201Z,96.83
2016-12-24T03:13:51.861Z,96.83
2016-12-24T03:14:52.128Z,96.83
2016-12-24T03:15:52.078Z,96.83
2016-12-24T03:16:52.042Z,96.83
2016-12-24T03:17:52.001Z,96.83
2016-12-24T03:18:51.658Z,97.12
2016-12-24T03:19:51.922Z,97.12
2016-12-24T03:20:51.880Z,97.21
2016-12-24T03:21:51.838Z,97.31
2016-12-24T03:22:51.796Z,97.12
2016-12-24T03:23:51.761Z,97.21
2016-12-24T03:24:51.719Z,97.21
2016-12-24T03:25:51.376Z,97.02
2016-12-24T03:26:51.335Z,97.59
2016-12-24T03:27:51.599Z,97.21
2016-12-24T03:28:51.253Z,97.31
2016-12-24T03:29:51.517Z,97.31
2016-12-24T03:30:51.477Z,97.5
2016-12-24T03:31:51.436Z,97.31
2016-12-24T03:32:51.096Z,97.21
2016-12-24T03:33:51.351Z,96.92
2016-12-24T03:34:51.008Z,96.92
2016-12-24T03:35:50.972Z,97.5
2016-12-24T03:36:50.933Z,97.59
2016-12-24T03:37:50.890Z,97.78
2016-12-24T03:38:51.149Z,97.69
2016-12-24T03:39:51.110Z,97.5
2016-12-24T03:40:51.069Z,97.5
2016-12-24T03:41:50.727Z,97.78
2016-12-24T03:42:50.988Z,97.5
2016-12-24T03:43:50.644Z,97.69
2016-12-24T03:44:50.907Z,97.4
2016-12-24T03:45:50.869Z,97.4
2016-12-24T03:46:50.825Z,97.69
2016-12-24T03:47:50.785Z,97.5
2016-12-24T03:48:50.747Z,97.69
2016-12-24T03:49:50.706Z,97.78
2016-12-24T03:50:50.362Z,97.88
2016-12-24T03:51:50.624Z,98.49
2016-12-24T03:52:50.585Z,98.21
2016-12-24T03:53:50.545Z,97.92
2016-12-24T03:54:50.199Z,97.92
2016-12-24T03:55:50.466Z,98.11
2016-12-24T03:56:50.425Z,98.11
2016-12-24T03:57:50.382Z,97.83
2016-12-24T03:58:50.341Z,97.83
2016-12-24T03:59:49.996Z,98.21
2016-12-24T04:00:50.261Z,97.92
2016-12-24T04:01:50.219Z,98.39
2016-12-24T04:02:49.878Z,98.3
2016-12-24T04:03:49.835Z,98.3
2016-12-24T04:04:50.098Z,98.39
2016-12-24T04:05:50.054Z,98.58
2016-12-24T04:06:49.713Z,98.49
2016-12-24T04:07:49.675Z,97.92
2016-12-24T04:08:49.935Z,98.02
2016-12-24T04:09:49.894Z,98.49
2016-12-24T04:10:49.853Z,98.11
2016-12-24T04:11:49.514Z,98.58
2016-12-24T04:12:49.770Z,98.3
2016-12-24T04:13:49.429Z,98.3
2016-12-24T04:14:49.690Z,98.87
2016-12-24T04:15:49.650Z,99.25
2016-12-24T04:16:49.608Z,98.96
2016-12-24T04:17:49.568Z,99.06
2016-12-24T04:18:49.526Z,98.68
2016-12-24T04:19:49.487Z,99.06
2016-12-24T04:20:49.445Z,99.06
2016-12-24T04:21:49.402Z,99.25
2016-12-24T04:22:49.089Z,99.1
2016-12-24T04:23:49.016Z,98.72
2016-12-24T04:24:49.282Z,99.39
2016-12-24T04:25:48.937Z,99.58
2016-12-24T04:26:49.198Z,99.63
2016-12-24T04:27:49.157Z,99.58
2016-12-24T04:28:49.120Z,99.58
2016-12-24T04:29:48.774Z,99.67
2016-12-24T04:30:49.036Z,99.01
2016-12-24T04:31:48.995Z,99.77
2016-12-24T04:32:48.652Z,99.77
2016-12-24T04:33:48.912Z,99.99
2016-12-24T04:34:48.571Z,99.77
2016-12-24T04:35:48.834Z,99.99
2016-12-24T04:36:48.791Z,99.86
2016-12-24T04:37:48.446Z,99.77
2016-12-24T04:38:48.707Z,99.96
2016-12-24T04:39:48.374Z,99.96
2016-12-24T04:40:48.626Z,99.99
2016-12-24T04:41:48.282Z,99.96
2016-12-24T04:42:48.241Z,99.96
2016-12-24T04:43:48.210Z,99.99
2016-12-24T04:44:48.160Z,99.99
2016-12-24T04:45:48.417Z,99.99
2016-12-24T04:46:48.379Z,99.99
2016-12-24T04:47:48.335Z,99.99
2016-12-24T04:48:48.299Z,99.99
2016-12-24T04:49:48.278Z,99.99
2016-12-24T04:50:47.916Z,99.99
2016-12-24T04:51:48.175Z,99.99
2016-12-24T04:52:48.134Z,99.99
2016-12-24T04:53:47.787Z,99.99
2016-12-24T04:54:48.056Z,99.99
2016-12-24T04:55:48.011Z,99.99
2016-12-24T04:56:47.663Z,99.99
2016-12-24T04:57:47.627Z,99.99
2016-12-24T04:58:47.887Z,99.99
2016-12-24T04:59:47.841Z,99.99
2016-12-24T05:00:47.806Z,99.99
2016-12-24T05:01:47.765Z,99.99
2016-12-24T05:02:47.720Z,99.99
2016-12-24T05:03:47.678Z,99.99
2016-12-24T05:04:47.639Z,99.99
2016-12-24T05:05:47.294Z,99.99
2016-12-24T05:06:47.555Z,99.99
2016-12-24T05:07:47.517Z,99.99
2016-12-24T05:08:47.470Z,99.99
2016-12-24T05:09:47.431Z,99.99
2016-12-24T05:10:47.391Z,99.99
2016-12-24T05:11:47.350Z,99.99
2016-12-24T05:12:47.009Z,99.99
2016-12-24T05:13:47.290Z,99.99
2016-12-24T05:14:47.223Z,99.99
2016-12-24T05:15:47.186Z,99.99
2016-12-24T05:16:47.145Z,99.99
2016-12-24T05:17:47.100Z,99.99
2016-12-24T05:18:46.758Z,99.99
2016-12-24T05:19:47.020Z,99.99
2016-12-24T05:20:46.978Z,99.99
2016-12-24T05:21:46.938Z,99.99
2016-12-24T05:22:46.895Z,99.99
2016-12-24T05:23:46.853Z,99.25
2016-12-24T05:24:46.511Z,99.25
2016-12-24T05:25:46.471Z,99.25
2016-12-24T05:26:46.431Z,98.3
2016-12-24T05:27:46.692Z,98.21
2016-12-24T05:28:46.649Z,98.11
2016-12-24T05:29:46.609Z,98.11
2016-12-24T05:30:46.569Z,98.3
2016-12-24T05:31:46.529Z,98.58
2016-12-24T05:32:46.488Z,98.54
2016-12-24T05:33:46.143Z,98.54
2016-12-24T05:34:46.405Z,98.35
2016-12-24T05:35:46.364Z,98.44
2016-12-24T05:36:46.321Z,98.16
2016-12-24T05:37:46.279Z,98.16
2016-12-24T05:38:46.241Z,98.16
2016-12-24T05:39:46.199Z,98.54
2016-12-24T05:40:45.856Z,98.54
2016-12-24T05:41:46.116Z,98.63
2016-12-24T05:42:46.078Z,98.06
2016-12-24T05:43:46.032Z,97.97
2016-12-24T05:44:45.988Z,98.63
2016-12-24T05:45:45.953Z,98.25
2016-12-24T05:46:45.911Z,98.72
2016-12-24T05:47:45.566Z,98.44
2016-12-24T05:48:45.829Z,98.72
2016-12-24T05:49:45.488Z,99.01
2016-12-24T05:50:45.747Z,98.77
2016-12-24T05:51:45.707Z,98.91
2016-12-24T05:52:45.664Z,98.58
2016-12-24T05:53:45.625Z,99.52
2016-12-24T05:54:45.583Z,99.52
2016-12-24T05:55:45.538Z,99.24
2016-12-24T05:56:45.501Z,99.52
2016-12-24T05:57:45.156Z,99.33
2016-12-24T05:58:45.417Z,99.81
2016-12-24T05:59:45.380Z,99.9
2016-12-24T06:00:45.336Z,99.9
2016-12-24T06:01:45.296Z,99.71
2016-12-24T06:02:45.254Z,99.9
2016-12-24T06:03:45.211Z,99.99
2016-12-24T06:04:45.172Z,99.99
2016-12-24T06:05:45.130Z,99.81
2016-12-24T06:06:45.084Z,99.9
2016-12-24T06:07:45.051Z,99.99
2016-12-24T06:08:45.009Z,99.99
2016-12-24T06:09:44.969Z,99.99
2016-12-24T06:10:44.922Z,99.99
2016-12-24T06:11:44.886Z,99.99
2016-12-24T06:12:44.537Z,99.99
2016-12-24T06:13:44.798Z,99.99
2016-12-24T06:14:44.763Z,99.99
2016-12-24T06:15:44.716Z,99.99
2016-12-24T06:16:44.674Z,99.99
2016-12-24T06:17:44.634Z,99.99
2016-12-24T06:18:44.297Z,99.99
2016-12-24T06:19:44.551Z,99.99
2016-12-24T06:20:44.513Z,99.99
2016-12-24T06:21:44.468Z,99.99
2016-12-24T06:22:44.428Z,99.99
2016-12-24T06:23:44.384Z,99.99
2016-12-24T06:24:44.345Z,99.99
2016-12-24T06:25:44.303Z,99.99
2016-12-24T06:26:44.265Z,99.99
2016-12-24T06:27:44.220Z,99.99
2016-12-24T06:28:44.180Z,99.99
2016-12-24T06:29:44.139Z,99.99
2016-12-24T06:30:44.095Z,99.99
2016-12-24T06:31:43.758Z,99.99
2016-12-24T06:32:44.010Z,99.99
2016-12-24T06:33:43.673Z,99.99
2016-12-24T06:34:43.928Z,99.99
2016-12-24T06:35:43.887Z,99.99
2016-12-24T06:36:43.847Z,99.99
2016-12-24T06:37:43.807Z,99.99
2016-12-24T06:38:43.763Z,99.99
2016-12-24T06:39:43.425Z,99.99
2016-12-24T06:40:43.380Z,99.99
2016-12-24T06:41:43.637Z,99.99
2016-12-24T06:42:43.596Z,99.99
2016-12-24T06:43:43.556Z,99.99
2016-12-24T06:44:43.516Z,99.99
2016-12-24T06:45:43.473Z,99.99
2016-12-24T06:46:43.431Z,99.99
2016-12-24T06:47:43.398Z,99.99
2016-12-24T06:48:43.351Z,99.99
2016-12-24T06:49:43.314Z,99.99
2016-12-24T06:50:43.267Z,99.99
2016-12-24T06:51:43.224Z,99.99
2016-12-24T06:52:43.184Z,99.86
2016-12-24T06:53:43.142Z,99.77
2016-12-24T06:54:43.102Z,99.39
2016-12-24T06:55:43.063Z,99.39
2016-12-24T06:56:43.019Z,99.1
2016-12-24T06:57:42.980Z,99.15
2016-12-24T06:58:42.937Z,99.06
2016-12-24T06:59:42.918Z,99.29
2016-12-24T07:00:42.854Z,98.44
2016-12-24T07:01:42.513Z,98.44
2016-12-24T07:02:42.467Z,98.77
2016-12-24T07:03:42.734Z,98.16
2016-12-24T07:04:42.689Z,98.35
2016-12-24T07:05:42.650Z,98.11
2016-12-24T07:06:42.609Z,98.68
2016-12-24T07:07:42.568Z,98.49
2016-12-24T07:08:42.525Z,98.39
2016-12-24T07:09:42.185Z,98.39
2016-12-24T07:10:42.449Z,98.44
2016-12-24T07:11:42.408Z,98.49
2016-12-24T07:12:42.070Z,98.63
2016-12-24T07:13:42.022Z,98.49
2016-12-24T07:14:42.280Z,98.02
2016-12-24T07:15:42.240Z,98.3
2016-12-24T07:16:42.200Z,98.11
2016-12-24T07:17:42.163Z,97.54
2016-12-24T07:18:42.118Z,97.83
2016-12-24T07:19:42.074Z,98.21
2016-12-24T07:20:42.038Z,97.64
2016-12-24T07:21:41.697Z,97.83
2016-12-24T07:22:41.982Z,97.83
2016-12-24T07:23:41.912Z,97.83
2016-12-24T07:24:41.869Z,97.26
2016-12-24T07:25:41.833Z,97.16
2016-12-24T07:26:41.484Z,97.64
2016-12-24T07:27:41.745Z,97.64
2016-12-24T07:28:41.408Z,97.16
2016-12-24T07:29:41.670Z,97.16
2016-12-24T07:30:41.622Z,97.16
2016-12-24T07:31:41.586Z,97.54
2016-12-24T07:32:41.545Z,97.45
2016-12-24T07:33:41.498Z,97.16
2016-12-24T07:34:41.462Z,97.16
2016-12-24T07:35:41.423Z,97.07
2016-12-24T07:36:41.382Z,97.16
2016-12-24T07:37:41.038Z,96.88
2016-12-24T07:38:41.298Z,96.31
2016-12-24T07:39:41.257Z,96.78
2016-12-24T07:40:40.915Z,97.26
2016-12-24T07:41:41.177Z,96.88
2016-12-24T07:42:40.838Z,97.07
2016-12-24T07:43:41.097Z,97.16
2016-12-24T07:44:41.056Z,97.16
2016-12-24T07:45:41.013Z,96.97
2016-12-24T07:46:40.674Z,97.64
2016-12-24T07:47:40.632Z,97.45
2016-12-24T07:48:40.590Z,97.64
2016-12-24T07:49:40.853Z,96.88
2016-12-24T07:50:40.810Z,96.88
2016-12-24T07:51:40.771Z,97.07
2016-12-24T07:52:40.428Z,96.97
2016-12-24T07:53:40.697Z,97.07
2016-12-24T07:54:40.649Z,96.88
2016-12-24T07:55:40.607Z,96.69
2016-12-24T07:56:40.564Z,96.69
2016-12-24T07:57:40.527Z,96.5
2016-12-24T07:58:40.486Z,96.41
2016-12-24T07:59:40.448Z,96.12
2016-12-24T08:00:40.403Z,96.22
2016-12-24T08:01:40.364Z,96.12
2016-12-24T08:02:40.324Z,96.03
2016-12-24T08:03:40.283Z,95.93
2016-12-24T08:04:39.941Z,96.22
2016-12-24T08:05:40.210Z,96.22
2016-12-24T08:06:39.859Z,95.45
2016-12-24T08:07:40.121Z,95.55
2016-12-24T08:08:39.779Z,95.55
2016-12-24T08:09:40.036Z,95.45
2016-12-24T08:10:39.703Z,95.65
2016-12-24T08:11:39.956Z,95.84
2016-12-24T08:12:39.916Z,95.65
2016-12-24T08:13:39.579Z,95.45
2016-12-24T08:14:39.836Z,95.36
2016-12-24T08:15:39.797Z,95.55
2016-12-24T08:16:39.757Z,95.45
2016-12-24T08:17:39.715Z,95.26
2016-12-24T08:18:39.675Z,95.36
2016-12-24T08:19:39.640Z,94.89
2016-12-24T08:20:39.289Z,94.79
2016-12-24T08:21:39.554Z,94.98
2016-12-24T08:22:39.512Z,95.07
2016-12-24T08:23:39.479Z,94.46
2016-12-24T08:24:39.431Z,94.65
2016-12-24T08:25:39.393Z,94.84
2016-12-24T08:26:39.351Z,95.12
2016-12-24T08:27:39.311Z,94.93
2016-12-24T08:28:39.270Z,95.12
2016-12-24T08:29:38.926Z,94.93
2016-12-24T08:30:39.189Z,94.74
2016-12-24T08:31:39.150Z,94.18
2016-12-24T08:32:39.111Z,94.46
2016-12-24T08:33:39.068Z,94.37
2016-12-24T08:34:39.029Z,94.27
2016-12-24T08:35:38.687Z,93.23
2016-12-24T08:36:38.953Z,93.23
2016-12-24T08:37:38.912Z,93.65
2016-12-24T08:38:38.569Z,93.27
2016-12-24T08:39:38.825Z,92.42
2016-12-24T08:40:38.791Z,92.42
2016-12-24T08:41:38.751Z,92.23
2016-12-24T08:42:38.422Z,92.04
2016-12-24T08:43:38.669Z,91.33
2016-12-24T08:44:38.649Z,90.57
2016-12-24T08:45:38.597Z,89.72
2016-12-24T08:46:38.550Z,89.24
2016-12-24T08:47:38.210Z,88.48
2016-12-24T08:48:38.479Z,88.34
2016-12-24T08:49:38.431Z,87.57
2016-12-24T08:50:38.400Z,86.72
2016-12-24T08:51:38.051Z,86.34
2016-12-24T08:52:38.312Z,82.96
2016-12-24T08:53:37.977Z,81.2
2016-12-24T08:54:38.248Z,79.52
2016-12-24T08:55:38.198Z,79.52
2016-12-24T08:56:37.859Z,78.67
2016-12-24T08:57:37.819Z,78.29
2016-12-24T08:58:38.082Z,78
2016-12-24T08:59:37.745Z,77.91
2016-12-24T09:00:37.704Z,76.48
2016-12-24T09:01:37.969Z,75.85
2016-12-24T09:02:37.630Z,74.24
2016-12-24T09:03:37.897Z,73.8
2016-12-24T09:04:37.860Z,73.41
2016-12-24T09:05:37.818Z,73.38
2016-12-24T09:06:37.788Z,73.28
2016-12-24T09:07:37.746Z,74.14
2016-12-24T09:08:37.714Z,74.87
2016-12-24T09:09:37.672Z,75.72
2016-12-24T09:10:37.636Z,75.78
2016-12-24T09:11:37.602Z,77.01
2016-12-24T09:12:37.561Z,77.3
2016-12-24T09:13:37.525Z,78.11
2016-12-24T09:14:37.257Z,77.73
2016-12-24T09:15:37.449Z,78.97
2016-12-24T09:16:37.416Z,78.59
2016-12-24T09:17:37.376Z,78.88
2016-12-24T09:18:37.339Z,79.5
2016-12-24T09:19:37.302Z,79.79
2016-12-24T09:20:37.274Z,79.97
2016-12-24T09:21:37.227Z,80.35
2016-12-24T09:22:37.191Z,80.45
2016-12-24T09:23:37.148Z,81.3
2016-12-24T09:24:37.113Z,81.3
2016-12-24T09:25:37.075Z,81.49
2016-12-24T09:26:37.043Z,81.4
2016-12-24T09:27:36.999Z,82.16
2016-12-24T09:28:36.961Z,82.45
2016-12-24T09:29:36.924Z,82.78
2016-12-24T09:30:36.885Z,82.88
2016-12-24T09:31:36.547Z,83.26
2016-12-24T09:32:36.812Z,83.54
2016-12-24T09:33:36.470Z,83.45
2016-12-24T09:34:36.736Z,83.54
2016-12-24T09:35:36.705Z,83.16
2016-12-24T09:36:36.363Z,83.36
2016-12-24T09:37:36.624Z,83.45
2016-12-24T09:38:36.584Z,83.92
2016-12-24T09:39:36.544Z,83.49
2016-12-24T09:40:36.510Z,83.11
2016-12-24T09:41:36.467Z,83.11
2016-12-24T09:42:36.432Z,82.26
2016-12-24T09:43:36.399Z,82.16
2016-12-24T09:44:36.360Z,81.68
2016-12-24T09:45:36.322Z,80.96
2016-12-24T09:46:36.276Z,80.3
2016-12-24T09:47:36.238Z,79.73
2016-12-24T09:48:36.202Z,79.92
2016-12-24T09:49:36.161Z,78.06
2016-12-24T09:50:36.127Z,76.73
2016-12-24T09:51:36.089Z,75.59
2016-12-24T09:52:36.058Z,75.3
2016-12-24T09:53:35.710Z,75.4
2016-12-24T09:54:35.973Z,75.15
2016-12-24T09:55:35.936Z,74.1
2016-12-24T09:56:35.902Z,72.52
2016-12-24T09:57:35.863Z,71
2016-12-24T09:58:35.823Z,71
2016-12-24T09:59:35.793Z,71.19
2016-12-24T10:00:35.752Z,70.72
2016-12-24T10:01:35.413Z,70.33
2016-12-24T10:02:35.679Z,70.33
2016-12-24T10:03:35.339Z,71.06
2016-12-24T10:04:35.603Z,72.11
2016-12-24T10:05:35.266Z,72.49
2016-12-24T10:06:35.531Z,73.02
2016-12-24T10:07:35.194Z,73.88
2016-12-24T10:08:35.456Z,74.92
2016-12-24T10:09:35.419Z,74.73
2016-12-24T10:10:35.390Z,76.31
2016-12-24T10:11:35.347Z,76.5
2016-12-24T10:12:35.318Z,77.55
2016-12-24T10:13:34.973Z,77.36
2016-12-24T10:14:34.963Z,77.36
2016-12-24T10:15:35.200Z,77.26
2016-12-24T10:16:35.162Z,77.83
2016-12-24T10:17:35.127Z,77.73
2016-12-24T10:18:35.088Z,78.21
2016-12-24T10:19:35.053Z,77.73
2016-12-24T10:20:35.013Z,78.21
2016-12-24T10:21:34.977Z,78.02
2016-12-24T10:22:34.943Z,77.83
2016-12-24T10:23:34.902Z,78.88
2016-12-24T10:24:34.866Z,78.78
2016-12-24T10:25:34.831Z,78.3
2016-12-24T10:26:34.490Z,78.78
2016-12-24T10:27:34.754Z,78.83
2016-12-24T10:28:34.717Z,79.31
2016-12-24T10:29:34.680Z,79.03
2016-12-24T10:30:34.650Z,79.12
2016-12-24T10:31:34.603Z,79.69
2016-12-24T10:32:34.567Z,79.6
2016-12-24T10:33:34.224Z,79.69
2016-12-24T10:34:34.490Z,79.88
2016-12-24T10:35:34.455Z,79.88
2016-12-24T10:36:34.113Z,79.69
2016-12-24T10:37:34.381Z,80.45
2016-12-24T10:38:34.340Z,80.35
2016-12-24T10:39:34.004Z,80.45
2016-12-24T10:40:33.958Z,81.02
2016-12-24T10:41:34.224Z,81.21
2016-12-24T10:42:34.191Z,81.3
2016-12-24T10:43:33.847Z,81.4
2016-12-24T10:44:34.113Z,81.68
2016-12-24T10:45:34.072Z,81.49
2016-12-24T10:46:34.035Z,81.4
2016-12-24T10:47:33.693Z,81.49
2016-12-24T10:48:33.958Z,81.68
2016-12-24T10:49:33.920Z,81.4
2016-12-24T10:50:33.881Z,81.59
2016-12-24T10:51:33.843Z,81.4
2016-12-24T10:52:33.805Z,81.68
2016-12-24T10:53:33.469Z,81.4
2016-12-24T10:54:33.728Z,81.68
2016-12-24T10:55:33.691Z,81.68
2016-12-24T10:56:33.651Z,81.4
2016-12-24T10:57:33.618Z,81.87
2016-12-24T10:58:33.275Z,81.68
2016-12-24T10:59:33.536Z,81.68
2016-12-24T11:00:33.501Z,81.68
2016-12-24T11:01:33.462Z,81.68
2016-12-24T11:02:33.422Z,81.68
2016-12-24T11:03:33.388Z,81.87
2016-12-24T11:04:33.347Z,81.4
2016-12-24T11:05:33.008Z,81.3
2016-12-24T11:06:32.966Z,81.68
2016-12-24T11:07:32.930Z,81.68
2016-12-24T11:08:33.191Z,82.07
2016-12-24T11:09:33.154Z,82.54
2016-12-24T11:10:33.115Z,82.26
2016-12-24T11:11:33.080Z,82.64
2016-12-24T11:12:33.035Z,82.35
2016-12-24T11:13:32.697Z,81.68
2016-12-24T11:14:32.962Z,81.68
2016-12-24T11:15:32.923Z,81.97
2016-12-24T11:16:32.582Z,81.87
2016-12-24T11:17:32.843Z,81.68
2016-12-24T11:18:32.811Z,81.59
2016-12-24T11:19:32.472Z,81.68
2016-12-24T11:20:32.731Z,81.78
2016-12-24T11:21:32.692Z,81.68
2016-12-24T11:22:32.668Z,81.59
2016-12-24T11:23:32.619Z,80.74
2016-12-24T11:24:32.575Z,81.12
2016-12-24T11:25:32.236Z,81.12
2016-12-24T11:26:32.200Z,81.02
2016-12-24T11:27:32.159Z,81.02
2016-12-24T11:28:32.122Z,81.3
2016-12-24T11:29:32.383Z,81.21
2016-12-24T11:30:32.045Z,81.3
2016-12-24T11:31:32.312Z,81.49
2016-12-24T11:32:32.269Z,80.83
2016-12-24T11:33:32.238Z,81.02
2016-12-24T11:34:32.195Z,81.12
2016-12-24T11:35:32.152Z,81.12
2016-12-24T11:36:32.115Z,81.02
2016-12-24T11:37:32.074Z,81.12
2016-12-24T11:38:32.038Z,81.12
2016-12-24T11:39:31.996Z,80.93
2016-12-24T11:40:31.963Z,80.93
2016-12-24T11:41:31.620Z,80.93
2016-12-24T11:42:31.893Z,80.74
2016-12-24T11:43:31.845Z,80.74
2016-12-24T11:44:31.813Z,80.93
2016-12-24T11:45:31.770Z,80.74
2016-12-24T11:46:31.730Z,80.26
2016-12-24T11:47:31.697Z,80.16
2016-12-24T11:48:31.655Z,79.97
2016-12-24T11:49:31.615Z,79.79
2016-12-24T11:50:31.274Z,79.97
2016-12-24T11:51:31.534Z,79.69
2016-12-24T11:52:31.501Z,79.73
2016-12-24T11:53:31.462Z,80.21
2016-12-24T11:54:31.119Z,80.49
2016-12-24T11:55:31.082Z,80.11
2016-12-24T11:56:31.043Z,80.21
2016-12-24T11:57:31.311Z,80.02
2016-12-24T11:58:31.272Z,80.4
2016-12-24T11:59:31.231Z,80.21
2016-12-24T12:00:31.196Z,79.92
2016-12-24T12:01:31.156Z,80.3
2016-12-24T12:02:30.814Z,80.3
2016-12-24T12:03:30.778Z,79.92
2016-12-24T12:04:31.038Z,80.02
2016-12-24T12:05:31.006Z,80.02
2016-12-24T12:06:30.967Z,80.49
2016-12-24T12:07:30.923Z,80.11
2016-12-24T12:08:30.887Z,80.4
2016-12-24T12:09:30.860Z,80.21
2016-12-24T12:10:30.812Z,80.49
2016-12-24T12:11:30.777Z,80.77
2016-12-24T12:12:30.732Z,80.11
2016-12-24T12:13:30.693Z,80.49
2016-12-24T12:14:30.354Z,79.83
2016-12-24T12:15:30.317Z,79.83
2016-12-24T12:16:30.578Z,79.83
2016-12-24T12:17:30.545Z,79.92
2016-12-24T12:18:30.201Z,80.4
2016-12-24T12:19:30.465Z,80.3
2016-12-24T12:20:30.427Z,79.92
2016-12-24T12:21:30.391Z,80.02
2016-12-24T12:22:30.050Z,79.73
2016-12-24T12:23:30.312Z,79.92
2016-12-24T12:24:30.275Z,79.63
2016-12-24T12:25:30.237Z,79.54
2016-12-24T12:26:30.199Z,79.92
2016-12-24T12:27:30.159Z,79.63
2016-12-24T12:28:30.122Z,79.83
2016-12-24T12:29:30.084Z,79.63
2016-12-24T12:30:30.046Z,79.83
2016-12-24T12:31:30.010Z,80.21
2016-12-24T12:32:29.667Z,80.02
2016-12-24T12:33:29.935Z,79.92
2016-12-24T12:34:29.896Z,79.35
2016-12-24T12:35:29.855Z,79.73
2016-12-24T12:36:29.813Z,80.02
2016-12-24T12:37:29.779Z,79.63
2016-12-24T12:38:29.441Z,79.92
2016-12-24T12:39:29.400Z,79.25
2016-12-24T12:40:29.666Z,79.25
2016-12-24T12:41:29.633Z,78.5
2016-12-24T12:42:29.290Z,79.06
2016-12-24T12:43:29.553Z,79.44
2016-12-24T12:44:29.513Z,79.06
2016-12-24T12:45:29.176Z,78.78
2016-12-24T12:46:29.438Z,79.25
2016-12-24T12:47:29.095Z,79.16
2016-12-24T12:48:29.359Z,79.06
2016-12-24T12:49:29.320Z,79.16
2016-12-24T12:50:29.283Z,79.44
2016-12-24T12:51:28.940Z,79.25
2016-12-24T12:52:28.903Z,79.44
2016-12-24T12:53:29.167Z,79.83
2016-12-24T12:54:29.133Z,79.63